Du har inga inställningar för hoppväder.nu

Hoppväder.nu

Senast uppdaterat 10:52

UTC-tid

2019-04-23 kl. 08:52


Sol och måne

Solen går upp 5:21 och går ner 21:35 (beräknade cirkatider)
Nästa fullmåne blir om 25 dagar (2019-05-18)

METAR

ESOE (Örebro)
(32 minuter sedan)
ESOE 230820Z VRB03KT CAVOK 15/05 Q1026=



ESOK (Karlstad)
(32 minuter sedan)
ESOK 230820Z 11007KT CAVOK 14/06 Q1025=



ESGR (Skövde)
(32 minuter sedan)
ESGR 230820Z 13006KT 100V160 CAVOK 14/05 Q1025=



ESSD (Borlänge)
(32 minuter sedan)
ESSD 230820Z 19007KT CAVOK 15/04 Q1025=



ESOW (Västerås)
(32 minuter sedan)
ESOW 230820Z AUTO 17007KT 140V200 9999 NCD 15/05 Q1027=



TAF

ESOE (Örebro)
(22 minuter sedan)
ESOE 230830Z 2309/2318 14007KT CAVOK=



ESOK (Karlstad)
(22 minuter sedan)
ESOK 230830Z 2309/2318 16006KT CAVOK=



ESGR (Skövde)
ESGR



ESSD (Borlänge)
(22 minuter sedan)
ESSD 230830Z 2309/2315 16007KT CAVOK=



ESOW (Västerås)
ESOW





Kodnycklar till TAF och METAR






LHP

(Örebro är område G2a i Södra delen)

ÖVERSIKT FÖR OMRÅDE B UTFÄRDAD 230715
GÄLLANDE DEN 23 APRIL 2019 MELLAN 08 OCH 16 UTC


Väderöversikt

Ett högtryck täcker Sverige

Sikt under 5 kilometer eller molnbas under 1000 fot
Väntas inte förekomma under perioden.

Måttlig eller svår isbildning
Väntas inte förekomma under perioden

Måttlig eller svår turbulens
10-16UTC: Område Södra delen



PROGNOS FÖR OMRÅDE B DEN SÖDRA DELEN UTFÄRDAD 230715
GÄLLANDE DEN 23 APRIL 2019 MELLAN 08 OCH 16 UTC

Måttlig eller svår turbulens
08-10UTC: Område G1c,G3d: Väntas inte förekomma under perioden

08-16UTC: Område G1a,G1b,G2b,G2a,G2c,G3a,G3c,G3b: Väntas inte förekomma under perioden

10-16UTC: Område G1c,G3d: måttlig turbulens SFC - 3000ft.


Måttlig eller svår isbildning
08-16UTC: I hela området: Väntas inte förekomma under perioden

Sikt/Väder/Moln
08-16UTC: I hela området: Sikt >8km. Molnbas >2000ft.

Molnöversida
08-16UTC: I hela området: Ingen prognos

CB/TCU Moln
08-16UTC: I hela området: Väntas inte förekomma under perioden

Nollgradersisoterm
08-16UTC: Noll grader FL050 - FL090.

Vind vid marken
08-10UTC: Område G1b: SO-S/3-10 knop, byar upp till 20 knop.
Område G2a: SO-S/2-6 knop, byar upp till 14 knop.
Område G3a: SO-S/2-9 knop, byar upp till 19 knop.
Område G3b: SO/1-8 knop, byar upp till 21 knop.
Område G2c: S/4-7 knop, byar upp till 15 knop.
Område G1a: S/3-10 knop, byar upp till 15 knop.
Område G3d: SO/3-14 knop, byar upp till 26 knop.
Område G1c: SO/4-12 knop, byar upp till 20 knop.
Område G3c: SO/0-13 knop, byar upp till 24 knop.
Område G2b: S/0-8 knop, byar upp till 14 knop.

10-12UTC: Område G3a: SO-S/5-15 knop, byar upp till 28 knop.
Område G1a: S/2-12 knop, byar upp till 19 knop.
Område G1b: SO-S/3-15 knop, byar upp till 30 knop.
Område G3d: SO/8-16 knop, byar upp till 30 knop.
Område G1c: SO/6-13 knop, byar upp till 28 knop.
Område G2c: S/5-11 knop, byar upp till 22 knop.
Område G3c: SO-S/8-15 knop, byar upp till 29 knop.
Område G2b: SO-S/1-12 knop, byar upp till 21 knop.
Område G2a: SO-S/3-13 knop, byar upp till 23 knop.
Område G3b: SO-S/7-16 knop, byar upp till 29 knop.

12-14UTC: Område G3d: SO/9-16 knop, byar upp till 30 knop.
Område G2c: S/5-12 knop, byar upp till 24 knop.
Område G1b: SO/3-14 knop, byar upp till 30 knop.
Område G1c: SO/6-14 knop, byar upp till 29 knop.
Område G3a: SO-S/4-15 knop, byar upp till 29 knop.
Område G2a: SO-S/4-13 knop, byar upp till 23 knop.
Område G1a: SO-S/2-11 knop, byar upp till 20 knop.
Område G3b: SO-S/6-16 knop, byar upp till 30 knop.
Område G2b: S/5-14 knop, byar upp till 24 knop.
Område G3c: SO-S/8-15 knop, byar upp till 30 knop.

14-16UTC: Område G2c: S/5-11 knop, byar upp till 21 knop.
Område G3a: SO-S/4-15 knop, byar upp till 27 knop.
Område G3d: SO/9-15 knop, byar upp till 29 knop.
Område G1b: SO/3-14 knop, byar upp till 28 knop.
Område G1c: SO/6-12 knop, byar upp till 28 knop.
Område G2b: SO-S/5-15 knop, byar upp till 24 knop.
Område G2a: SO/5-14 knop, byar upp till 23 knop.
Område G3b: SO/6-16 knop, byar upp till 29 knop.
Område G1a: SO-S/2-14 knop, byar upp till 17 knop.
Område G3c: SO/8-16 knop, byar upp till 29 knop.


Genomsnittlig vind och temperatur för området
2000ft:
08-10UTC: 180/18kt +9.
10-12UTC: 170/19kt +10.
12-14UTC: 160/19kt +10.
14-16UTC: 160/20kt +10.

FL50:
08-12UTC: 170/21kt +1.
12-14UTC: 160/20kt +2.
14-16UTC: 160/21kt +2.

FL100:
08-10UTC: 160/16kt -3.
10-12UTC: 160/17kt -3.
12-14UTC: 160/19kt -3.
14-16UTC: 150/20kt -4.

Lägsta QNH
1021 hPa.

OBS! endast utbredd måttlig eller svår isbildning och turbulens prognostiseras i LLF.
Avsaknad av isbildning och turbulens i prognosen utesluter inte förekomst av lätt isbildning och turbulens.
För indikation på lätt isbildning, var vänlig kontrollera om prognosen för molntopp ligger högre än nollgradersisotermen.
Förekomst av TCU eller CB medför alltid en risk för måttlig eller svår isbildning och turbulens även om det inte framgår explicit av prognosen.





Spotting

Hur fungerar spotthjälpen och Vindkartan?

Markvind är ca 1-3 m/s med byar på 7 m/s.
Vind på 600 m ca 9 m/s.
Vind på 1500 m ca 11 m/s.
Vind på 3000 m ca 8 m/s.
FXB flyger ca 28 m/s över marken på finalen.
Du driver ca 370 m bakåt i frifall. (494 m)
Lämplig spot är 3 sekunder eller 83 m efter gropen.
(7 s eller 194 m)
För små grupper eller ensamhoppare bör man vänta 5-8 sekunder mellan grupperna.
För större grupper bör man vänta 11-13 sekunder mellan grupperna.


Vindkartan

Senast uppdaterad 10:52




All data kommer från LFV.se